sensor_id;sensor_type;location;lat;lon;timestamp;temperature;humidity
11079;DHT22;5592;49.234;7.268;2023-05-07T00:00:00;10.90;99.90
11079;DHT22;5592;49.234;7.268;2023-05-07T00:02:26;10.90;99.90
11079;DHT22;5592;49.234;7.268;2023-05-07T00:04:52;10.90;99.90
11079;DHT22;5592;49.234;7.268;2023-05-07T00:07:18;10.80;99.90
11079;DHT22;5592;49.234;7.268;2023-05-07T00:09:43;10.70;99.90
11079;DHT22;5592;49.234;7.268;2023-05-07T00:12:09;10.70;99.90
11079;DHT22;5592;49.234;7.268;2023-05-07T00:14:35;10.70;99.90
11079;DHT22;5592;49.234;7.268;2023-05-07T00:17:00;10.60;99.90
11079;DHT22;5592;49.234;7.268;2023-05-07T00:19:26;10.60;99.90
11079;DHT22;5592;49.234;7.268;2023-05-07T00:21:52;10.50;99.90
11079;DHT22;5592;49.234;7.268;2023-05-07T00:24:19;10.40;99.90
11079;DHT22;5592;49.234;7.268;2023-05-07T00:26:45;10.40;99.90
11079;DHT22;5592;49.234;7.268;2023-05-07T00:29:10;10.50;99.90
11079;DHT22;5592;49.234;7.268;2023-05-07T00:31:36;10.50;99.90
11079;DHT22;5592;49.234;7.268;2023-05-07T00:34:02;10.50;99.90
11079;DHT22;5592;49.234;7.268;2023-05-07T00:36:27;10.50;99.90
11079;DHT22;5592;49.234;7.268;2023-05-07T00:38:54;10.40;99.90
11079;DHT22;5592;49.234;7.268;2023-05-07T00:41:20;10.30;99.90
11079;DHT22;5592;49.234;7.268;2023-05-07T00:43:47;10.30;99.90
11079;DHT22;5592;49.234;7.268;2023-05-07T00:46:13;10.20;99.90
11079;DHT22;5592;49.234;7.268;2023-05-07T00:48:39;10.20;99.90
11079;DHT22;5592;49.234;7.268;2023-05-07T00:51:05;10.20;99.90
11079;DHT22;5592;49.234;7.268;2023-05-07T00:53:30;10.20;99.90
11079;DHT22;5592;49.234;7.268;2023-05-07T00:55:56;10.10;99.90
11079;DHT22;5592;49.234;7.268;2023-05-07T00:58:22;10.10;99.90
11079;DHT22;5592;49.234;7.268;2023-05-07T01:00:48;10.00;99.90
11079;DHT22;5592;49.234;7.268;2023-05-07T01:03:14;10.00;99.90
11079;DHT22;5592;49.234;7.268;2023-05-07T01:05:41;9.90;99.90
11079;DHT22;5592;49.234;7.268;2023-05-07T01:08:07;9.90;99.90
11079;DHT22;5592;49.234;7.268;2023-05-07T01:10:33;9.90;99.90
11079;DHT22;5592;49.234;7.268;2023-05-07T01:12:59;9.80;99.90
11079;DHT22;5592;49.234;7.268;2023-05-07T01:15:25;9.80;99.90
11079;DHT22;5592;49.234;7.268;2023-05-07T01:17:51;9.80;99.90
11079;DHT22;5592;49.234;7.268;2023-05-07T01:20:18;9.70;99.90
11079;DHT22;5592;49.234;7.268;2023-05-07T01:22:44;9.70;99.90
11079;DHT22;5592;49.234;7.268;2023-05-07T01:25:10;9.60;99.90
11079;DHT22;5592;49.234;7.268;2023-05-07T01:27:35;9.60;99.90
11079;DHT22;5592;49.234;7.268;2023-05-07T01:30:03;9.60;99.90
11079;DHT22;5592;49.234;7.268;2023-05-07T01:32:35;9.50;99.90
11079;DHT22;5592;49.234;7.268;2023-05-07T01:35:05;9.50;99.90
11079;DHT22;5592;49.234;7.268;2023-05-07T01:37:31;9.50;99.90
11079;DHT22;5592;49.234;7.268;2023-05-07T01:39:57;9.40;99.90
11079;DHT22;5592;49.234;7.268;2023-05-07T01:42:23;9.40;99.90
11079;DHT22;5592;49.234;7.268;2023-05-07T01:44:48;9.40;99.90
11079;DHT22;5592;49.234;7.268;2023-05-07T01:47:14;9.40;99.90
11079;DHT22;5592;49.234;7.268;2023-05-07T01:49:42;9.40;99.90
11079;DHT22;5592;49.234;7.268;2023-05-07T01:52:09;9.40;99.90
11079;DHT22;5592;49.234;7.268;2023-05-07T01:54:35;9.40;99.90
11079;DHT22;5592;49.234;7.268;2023-05-07T01:57:01;9.40;99.90
11079;DHT22;5592;49.234;7.268;2023-05-07T01:59:26;9.40;99.90
11079;DHT22;5592;49.234;7.268;2023-05-07T02:01:52;9.30;99.90
11079;DHT22;5592;49.234;7.268;2023-05-07T02:04:17;9.40;99.90
11079;DHT22;5592;49.234;7.268;2023-05-07T02:06:43;9.40;99.90
11079;DHT22;5592;49.234;7.268;2023-05-07T02:09:09;9.40;99.90
11079;DHT22;5592;49.234;7.268;2023-05-07T02:11:34;9.30;99.90
11079;DHT22;5592;49.234;7.268;2023-05-07T02:14:00;9.30;99.90
11079;DHT22;5592;49.234;7.268;2023-05-07T02:16:26;9.20;99.90
11079;DHT22;5592;49.234;7.268;2023-05-07T02:18:51;9.10;99.90
11079;DHT22;5592;49.234;7.268;2023-05-07T02:21:17;9.10;99.90
11079;DHT22;5592;49.234;7.268;2023-05-07T02:23:43;9.10;99.90
11079;DHT22;5592;49.234;7.268;2023-05-07T02:26:08;9.10;99.90
11079;DHT22;5592;49.234;7.268;2023-05-07T02:28:34;9.10;99.90
11079;DHT22;5592;49.234;7.268;2023-05-07T02:31:03;9.10;99.90
11079;DHT22;5592;49.234;7.268;2023-05-07T02:33:28;9.10;99.90
11079;DHT22;5592;49.234;7.268;2023-05-07T02:35:54;9.20;99.90
11079;DHT22;5592;49.234;7.268;2023-05-07T02:38:20;9.30;99.90
11079;DHT22;5592;49.234;7.268;2023-05-07T02:40:46;9.30;99.90
11079;DHT22;5592;49.234;7.268;2023-05-07T02:43:11;9.30;99.90
11079;DHT22;5592;49.234;7.268;2023-05-07T02:45:37;9.20;99.90
11079;DHT22;5592;49.234;7.268;2023-05-07T02:48:04;9.20;99.90
11079;DHT22;5592;49.234;7.268;2023-05-07T02:50:30;9.10;99.90
11079;DHT22;5592;49.234;7.268;2023-05-07T02:52:58;9.00;99.90
11079;DHT22;5592;49.234;7.268;2023-05-07T02:55:23;9.00;99.90
11079;DHT22;5592;49.234;7.268;2023-05-07T02:57:49;8.90;99.90
11079;DHT22;5592;49.234;7.268;2023-05-07T03:00:17;8.90;99.90
11079;DHT22;5592;49.234;7.268;2023-05-07T03:02:46;8.90;99.90
11079;DHT22;5592;49.234;7.268;2023-05-07T03:05:11;8.90;99.90
11079;DHT22;5592;49.234;7.268;2023-05-07T03:07:38;8.90;99.90
11079;DHT22;5592;49.234;7.268;2023-05-07T03:10:04;8.90;99.90
11079;DHT22;5592;49.234;7.268;2023-05-07T03:12:30;8.90;99.90
11079;DHT22;5592;49.234;7.268;2023-05-07T03:14:56;8.90;99.90
11079;DHT22;5592;49.234;7.268;2023-05-07T03:17:22;8.90;99.90
11079;DHT22;5592;49.234;7.268;2023-05-07T03:19:48;8.80;99.90
11079;DHT22;5592;49.234;7.268;2023-05-07T03:22:13;8.80;99.90
11079;DHT22;5592;49.234;7.268;2023-05-07T03:24:39;8.80;99.90
11079;DHT22;5592;49.234;7.268;2023-05-07T03:27:05;8.70;99.90
11079;DHT22;5592;49.234;7.268;2023-05-07T03:29:30;8.70;99.90
11079;DHT22;5592;49.234;7.268;2023-05-07T03:31:56;8.70;99.90
11079;DHT22;5592;49.234;7.268;2023-05-07T03:34:21;8.70;99.90
11079;DHT22;5592;49.234;7.268;2023-05-07T03:36:48;8.70;99.90
11079;DHT22;5592;49.234;7.268;2023-05-07T03:39:14;8.70;99.90
11079;DHT22;5592;49.234;7.268;2023-05-07T03:41:40;8.70;99.90
11079;DHT22;5592;49.234;7.268;2023-05-07T03:44:05;8.80;99.90
11079;DHT22;5592;49.234;7.268;2023-05-07T03:46:33;8.80;99.90
11079;DHT22;5592;49.234;7.268;2023-05-07T03:48:58;8.70;99.90
11079;DHT22;5592;49.234;7.268;2023-05-07T03:51:24;8.70;99.90
11079;DHT22;5592;49.234;7.268;2023-05-07T03:53:52;8.70;99.90
11079;DHT22;5592;49.234;7.268;2023-05-07T03:56:22;8.80;99.90
11079;DHT22;5592;49.234;7.268;2023-05-07T03:58:48;8.90;99.90
11079;DHT22;5592;49.234;7.268;2023-05-07T04:01:13;8.90;99.90
11079;DHT22;5592;49.234;7.268;2023-05-07T04:03:39;8.90;99.90
11079;DHT22;5592;49.234;7.268;2023-05-07T04:06:05;8.80;99.90
11079;DHT22;5592;49.234;7.268;2023-05-07T04:08:31;8.80;99.90
11079;DHT22;5592;49.234;7.268;2023-05-07T04:10:57;8.70;99.90
11079;DHT22;5592;49.234;7.268;2023-05-07T04:13:23;8.80;99.90
11079;DHT22;5592;49.234;7.268;2023-05-07T04:15:49;8.70;99.90
11079;DHT22;5592;49.234;7.268;2023-05-07T04:18:15;8.80;99.90
11079;DHT22;5592;49.234;7.268;2023-05-07T04:20:41;8.80;99.90
11079;DHT22;5592;49.234;7.268;2023-05-07T04:23:07;8.80;99.90
11079;DHT22;5592;49.234;7.268;2023-05-07T04:25:32;8.90;99.90
11079;DHT22;5592;49.234;7.268;2023-05-07T04:27:58;9.00;99.90
11079;DHT22;5592;49.234;7.268;2023-05-07T04:30:24;9.00;99.90
11079;DHT22;5592;49.234;7.268;2023-05-07T04:32:50;9.10;99.90
11079;DHT22;5592;49.234;7.268;2023-05-07T04:35:15;9.10;99.90
11079;DHT22;5592;49.234;7.268;2023-05-07T04:37:41;9.20;99.90
11079;DHT22;5592;49.234;7.268;2023-05-07T04:40:07;9.30;99.90
11079;DHT22;5592;49.234;7.268;2023-05-07T04:42:33;9.30;99.90
11079;DHT22;5592;49.234;7.268;2023-05-07T04:44:58;9.40;99.90
11079;DHT22;5592;49.234;7.268;2023-05-07T04:47:25;9.50;99.90
11079;DHT22;5592;49.234;7.268;2023-05-07T04:49:51;9.60;99.90
11079;DHT22;5592;49.234;7.268;2023-05-07T04:52:16;9.70;99.90
11079;DHT22;5592;49.234;7.268;2023-05-07T04:54:42;9.80;99.90
11079;DHT22;5592;49.234;7.268;2023-05-07T04:57:07;10.00;99.90
11079;DHT22;5592;49.234;7.268;2023-05-07T04:59:33;10.10;99.90
11079;DHT22;5592;49.234;7.268;2023-05-07T05:01:59;10.30;99.90
11079;DHT22;5592;49.234;7.268;2023-05-07T05:04:25;10.40;99.90
11079;DHT22;5592;49.234;7.268;2023-05-07T05:06:51;10.50;99.90
11079;DHT22;5592;49.234;7.268;2023-05-07T05:09:16;10.70;99.90
11079;DHT22;5592;49.234;7.268;2023-05-07T05:11:42;10.70;99.90
11079;DHT22;5592;49.234;7.268;2023-05-07T05:14:07;10.80;99.90
11079;DHT22;5592;49.234;7.268;2023-05-07T05:16:33;10.90;99.90
11079;DHT22;5592;49.234;7.268;2023-05-07T05:18:59;11.00;99.90
11079;DHT22;5592;49.234;7.268;2023-05-07T05:21:25;11.20;99.90
11079;DHT22;5592;49.234;7.268;2023-05-07T05:23:50;11.40;99.90
11079;DHT22;5592;49.234;7.268;2023-05-07T05:26:16;11.50;99.90
11079;DHT22;5592;49.234;7.268;2023-05-07T05:28:41;11.60;99.90
11079;DHT22;5592;49.234;7.268;2023-05-07T05:31:07;11.60;99.90
11079;DHT22;5592;49.234;7.268;2023-05-07T05:33:33;11.60;99.90
11079;DHT22;5592;49.234;7.268;2023-05-07T05:35:58;11.60;99.90
11079;DHT22;5592;49.234;7.268;2023-05-07T05:38:24;11.70;99.90
11079;DHT22;5592;49.234;7.268;2023-05-07T05:40:51;11.90;99.90
11079;DHT22;5592;49.234;7.268;2023-05-07T05:43:16;12.10;99.90
11079;DHT22;5592;49.234;7.268;2023-05-07T05:45:42;12.40;99.90
11079;DHT22;5592;49.234;7.268;2023-05-07T05:48:07;12.80;99.90
11079;DHT22;5592;49.234;7.268;2023-05-07T05:50:34;13.20;99.90
11079;DHT22;5592;49.234;7.268;2023-05-07T05:53:01;13.50;99.90
11079;DHT22;5592;49.234;7.268;2023-05-07T05:55:26;13.70;99.90
11079;DHT22;5592;49.234;7.268;2023-05-07T05:57:52;14.00;99.90
11079;DHT22;5592;49.234;7.268;2023-05-07T06:00:18;14.20;99.90
11079;DHT22;5592;49.234;7.268;2023-05-07T06:02:44;14.60;99.90
11079;DHT22;5592;49.234;7.268;2023-05-07T06:05:09;14.80;99.90
11079;DHT22;5592;49.234;7.268;2023-05-07T06:07:35;15.20;99.90
11079;DHT22;5592;49.234;7.268;2023-05-07T06:10:01;15.40;99.90
11079;DHT22;5592;49.234;7.268;2023-05-07T06:12:27;15.70;99.90
11079;DHT22;5592;49.234;7.268;2023-05-07T06:14:52;15.90;99.90
11079;DHT22;5592;49.234;7.268;2023-05-07T06:17:18;16.20;99.90
11079;DHT22;5592;49.234;7.268;2023-05-07T06:19:43;16.40;99.90
11079;DHT22;5592;49.234;7.268;2023-05-07T06:22:09;16.90;99.90
11079;DHT22;5592;49.234;7.268;2023-05-07T06:24:38;17.20;99.90
11079;DHT22;5592;49.234;7.268;2023-05-07T06:27:03;17.70;99.90
11079;DHT22;5592;49.234;7.268;2023-05-07T06:29:29;18.10;99.90
11079;DHT22;5592;49.234;7.268;2023-05-07T06:32:06;18.30;99.90
11079;DHT22;5592;49.234;7.268;2023-05-07T06:34:34;18.40;99.90
11079;DHT22;5592;49.234;7.268;2023-05-07T06:37:00;18.50;99.90
11079;DHT22;5592;49.234;7.268;2023-05-07T06:39:25;18.80;99.90
11079;DHT22;5592;49.234;7.268;2023-05-07T06:41:51;19.00;99.90
11079;DHT22;5592;49.234;7.268;2023-05-07T06:44:17;19.30;99.90
11079;DHT22;5592;49.234;7.268;2023-05-07T06:46:42;19.50;99.90
11079;DHT22;5592;49.234;7.268;2023-05-07T06:49:08;19.80;99.90
11079;DHT22;5592;49.234;7.268;2023-05-07T06:51:34;20.40;99.90
11079;DHT22;5592;49.234;7.268;2023-05-07T06:53:59;21.40;99.90
11079;DHT22;5592;49.234;7.268;2023-05-07T06:56:25;22.30;99.90
11079;DHT22;5592;49.234;7.268;2023-05-07T06:58:51;22.60;99.90
11079;DHT22;5592;49.234;7.268;2023-05-07T07:01:16;22.60;99.90
11079;DHT22;5592;49.234;7.268;2023-05-07T07:03:42;22.40;99.90
11079;DHT22;5592;49.234;7.268;2023-05-07T07:06:07;22.40;99.90
11079;DHT22;5592;49.234;7.268;2023-05-07T07:08:33;22.40;99.90
11079;DHT22;5592;49.234;7.268;2023-05-07T07:11:00;22.20;99.90
11079;DHT22;5592;49.234;7.268;2023-05-07T07:13:25;21.80;99.90
11079;DHT22;5592;49.234;7.268;2023-05-07T07:15:51;21.90;99.90
11079;DHT22;5592;49.234;7.268;2023-05-07T07:18:18;22.10;99.90
11079;DHT22;5592;49.234;7.268;2023-05-07T07:20:44;22.20;99.90
11079;DHT22;5592;49.234;7.268;2023-05-07T07:23:10;22.40;99.90
11079;DHT22;5592;49.234;7.268;2023-05-07T07:25:35;22.40;99.90
11079;DHT22;5592;49.234;7.268;2023-05-07T07:28:01;22.30;99.90
11079;DHT22;5592;49.234;7.268;2023-05-07T07:30:27;22.10;99.90
11079;DHT22;5592;49.234;7.268;2023-05-07T07:32:53;21.80;99.90
11079;DHT22;5592;49.234;7.268;2023-05-07T07:35:19;21.60;99.90
11079;DHT22;5592;49.234;7.268;2023-05-07T07:37:44;21.50;99.90
11079;DHT22;5592;49.234;7.268;2023-05-07T07:40:11;21.70;99.90
11079;DHT22;5592;49.234;7.268;2023-05-07T07:42:37;21.60;99.90
11079;DHT22;5592;49.234;7.268;2023-05-07T07:45:03;21.80;99.90
11079;DHT22;5592;49.234;7.268;2023-05-07T07:47:31;22.10;99.90
11079;DHT22;5592;49.234;7.268;2023-05-07T07:49:57;22.50;99.90
11079;DHT22;5592;49.234;7.268;2023-05-07T07:52:22;22.70;99.90
11079;DHT22;5592;49.234;7.268;2023-05-07T07:54:48;22.90;99.90
11079;DHT22;5592;49.234;7.268;2023-05-07T07:57:13;23.30;99.90
11079;DHT22;5592;49.234;7.268;2023-05-07T07:59:39;23.80;99.90
11079;DHT22;5592;49.234;7.268;2023-05-07T08:02:05;24.50;99.90
11079;DHT22;5592;49.234;7.268;2023-05-07T08:04:31;25.10;99.90
11079;DHT22;5592;49.234;7.268;2023-05-07T08:06:58;25.60;99.90
11079;DHT22;5592;49.234;7.268;2023-05-07T08:09:24;25.90;99.90
11079;DHT22;5592;49.234;7.268;2023-05-07T08:11:49;26.00;99.90
11079;DHT22;5592;49.234;7.268;2023-05-07T08:14:15;26.00;99.90
11079;DHT22;5592;49.234;7.268;2023-05-07T08:16:41;26.10;99.90
11079;DHT22;5592;49.234;7.268;2023-05-07T08:19:06;26.20;99.90
11079;DHT22;5592;49.234;7.268;2023-05-07T08:21:32;27.00;99.90
11079;DHT22;5592;49.234;7.268;2023-05-07T08:23:58;28.00;99.90
11079;DHT22;5592;49.234;7.268;2023-05-07T08:26:23;28.50;99.90
11079;DHT22;5592;49.234;7.268;2023-05-07T08:28:49;28.70;99.90
11079;DHT22;5592;49.234;7.268;2023-05-07T08:31:15;29.10;99.90
11079;DHT22;5592;49.234;7.268;2023-05-07T08:33:40;29.10;99.90
11079;DHT22;5592;49.234;7.268;2023-05-07T08:36:06;28.80;99.90
11079;DHT22;5592;49.234;7.268;2023-05-07T08:38:31;28.70;99.90
11079;DHT22;5592;49.234;7.268;2023-05-07T08:40:57;28.20;99.90
11079;DHT22;5592;49.234;7.268;2023-05-07T08:43:26;27.60;99.90
11079;DHT22;5592;49.234;7.268;2023-05-07T08:45:53;27.50;99.90
11079;DHT22;5592;49.234;7.268;2023-05-07T08:48:22;27.40;99.90
11079;DHT22;5592;49.234;7.268;2023-05-07T08:50:50;27.30;99.90
11079;DHT22;5592;49.234;7.268;2023-05-07T08:53:16;27.10;99.90
11079;DHT22;5592;49.234;7.268;2023-05-07T08:55:43;26.80;99.90
11079;DHT22;5592;49.234;7.268;2023-05-07T08:58:08;26.90;99.90
11079;DHT22;5592;49.234;7.268;2023-05-07T09:00:36;27.00;99.90
11079;DHT22;5592;49.234;7.268;2023-05-07T09:03:02;27.20;99.90
11079;DHT22;5592;49.234;7.268;2023-05-07T09:05:28;27.50;99.90
11079;DHT22;5592;49.234;7.268;2023-05-07T09:07:53;27.40;99.90
11079;DHT22;5592;49.234;7.268;2023-05-07T09:10:21;27.30;99.90
11079;DHT22;5592;49.234;7.268;2023-05-07T09:12:47;27.00;99.90
11079;DHT22;5592;49.234;7.268;2023-05-07T09:15:12;26.70;99.90
11079;DHT22;5592;49.234;7.268;2023-05-07T09:17:38;26.70;99.90
11079;DHT22;5592;49.234;7.268;2023-05-07T09:20:05;26.80;99.90
11079;DHT22;5592;49.234;7.268;2023-05-07T09:22:36;27.00;99.90
11079;DHT22;5592;49.234;7.268;2023-05-07T09:25:02;27.10;99.90
11079;DHT22;5592;49.234;7.268;2023-05-07T09:27:27;27.40;99.90
11079;DHT22;5592;49.234;7.268;2023-05-07T09:29:53;28.10;99.90
11079;DHT22;5592;49.234;7.268;2023-05-07T09:32:19;28.40;99.90
11079;DHT22;5592;49.234;7.268;2023-05-07T09:34:44;28.90;99.90
11079;DHT22;5592;49.234;7.268;2023-05-07T09:37:12;29.00;99.90
11079;DHT22;5592;49.234;7.268;2023-05-07T09:39:42;29.50;99.90
11079;DHT22;5592;49.234;7.268;2023-05-07T09:42:08;30.20;99.90
11079;DHT22;5592;49.234;7.268;2023-05-07T09:44:34;31.00;99.90
11079;DHT22;5592;49.234;7.268;2023-05-07T09:47:02;31.50;99.90
11079;DHT22;5592;49.234;7.268;2023-05-07T09:49:30;31.30;99.90
11079;DHT22;5592;49.234;7.268;2023-05-07T09:52:00;31.30;99.90
11079;DHT22;5592;49.234;7.268;2023-05-07T09:54:26;31.40;99.90
11079;DHT22;5592;49.234;7.268;2023-05-07T09:56:56;31.40;99.90
11079;DHT22;5592;49.234;7.268;2023-05-07T09:59:24;31.70;99.90
11079;DHT22;5592;49.234;7.268;2023-05-07T10:01:52;32.00;99.90
11079;DHT22;5592;49.234;7.268;2023-05-07T10:04:19;32.50;99.90
11079;DHT22;5592;49.234;7.268;2023-05-07T10:06:46;32.40;97.00
11079;DHT22;5592;49.234;7.268;2023-05-07T10:09:12;32.70;96.00
11079;DHT22;5592;49.234;7.268;2023-05-07T10:11:39;31.80;95.40
11079;DHT22;5592;49.234;7.268;2023-05-07T10:14:05;31.40;97.50
11079;DHT22;5592;49.234;7.268;2023-05-07T10:16:32;31.90;97.90
11079;DHT22;5592;49.234;7.268;2023-05-07T10:19:06;32.40;95.80
11079;DHT22;5592;49.234;7.268;2023-05-07T10:21:38;33.20;93.20
11079;DHT22;5592;49.234;7.268;2023-05-07T10:24:20;33.70;92.70
11079;DHT22;5592;49.234;7.268;2023-05-07T10:26:50;33.10;91.60
11079;DHT22;5592;49.234;7.268;2023-05-07T10:34:40;32.80;93.10
11079;DHT22;5592;49.234;7.268;2023-05-07T10:37:07;32.80;92.70
11079;DHT22;5592;49.234;7.268;2023-05-07T10:39:35;32.80;95.30
11079;DHT22;5592;49.234;7.268;2023-05-07T10:42:11;32.10;94.80
11079;DHT22;5592;49.234;7.268;2023-05-07T10:44:36;31.20;95.80
11079;DHT22;5592;49.234;7.268;2023-05-07T10:47:09;30.40;96.10
11079;DHT22;5592;49.234;7.268;2023-05-07T10:49:37;29.90;95.30
11079;DHT22;5592;49.234;7.268;2023-05-07T10:52:23;29.30;96.00
11079;DHT22;5592;49.234;7.268;2023-05-07T10:57:44;28.60;98.70
11079;DHT22;5592;49.234;7.268;2023-05-07T11:05:31;27.60;99.90
11079;DHT22;5592;49.234;7.268;2023-05-07T11:08:01;27.30;99.50
11079;DHT22;5592;49.234;7.268;2023-05-07T11:10:53;27.20;98.90
11079;DHT22;5592;49.234;7.268;2023-05-07T11:13:46;27.10;99.30
11079;DHT22;5592;49.234;7.268;2023-05-07T11:16:25;27.10;99.90
11079;DHT22;5592;49.234;7.268;2023-05-07T11:18:56;27.00;99.40
11079;DHT22;5592;49.234;7.268;2023-05-07T11:21:41;27.00;99.90
11079;DHT22;5592;49.234;7.268;2023-05-07T11:24:08;26.90;99.90
11079;DHT22;5592;49.234;7.268;2023-05-07T11:27:01;26.80;99.90
11079;DHT22;5592;49.234;7.268;2023-05-07T11:29:30;26.60;98.90
11079;DHT22;5592;49.234;7.268;2023-05-07T11:31:56;26.70;99.90
11079;DHT22;5592;49.234;7.268;2023-05-07T11:34:24;27.00;99.90
11079;DHT22;5592;49.234;7.268;2023-05-07T11:36:50;27.20;99.90
11079;DHT22;5592;49.234;7.268;2023-05-07T11:39:29;27.10;99.90
11079;DHT22;5592;49.234;7.268;2023-05-07T11:41:55;27.10;99.20
11079;DHT22;5592;49.234;7.268;2023-05-07T11:44:21;26.90;99.10
11079;DHT22;5592;49.234;7.268;2023-05-07T11:46:47;27.10;99.70
11079;DHT22;5592;49.234;7.268;2023-05-07T11:49:13;27.30;99.90
11079;DHT22;5592;49.234;7.268;2023-05-07T11:51:39;27.40;99.90
11079;DHT22;5592;49.234;7.268;2023-05-07T11:54:06;27.70;99.90
11079;DHT22;5592;49.234;7.268;2023-05-07T11:56:36;27.50;99.20
11079;DHT22;5592;49.234;7.268;2023-05-07T11:59:02;27.40;99.90
11079;DHT22;5592;49.234;7.268;2023-05-07T12:01:28;27.30;99.90
11079;DHT22;5592;49.234;7.268;2023-05-07T12:03:53;27.20;99.90
11079;DHT22;5592;49.234;7.268;2023-05-07T12:06:19;26.70;99.90
11079;DHT22;5592;49.234;7.268;2023-05-07T12:08:46;26.60;99.90
11079;DHT22;5592;49.234;7.268;2023-05-07T12:11:25;26.80;99.90
11079;DHT22;5592;49.234;7.268;2023-05-07T12:13:51;26.70;99.90
11079;DHT22;5592;49.234;7.268;2023-05-07T12:16:17;26.50;99.90
11079;DHT22;5592;49.234;7.268;2023-05-07T12:18:44;26.20;99.90
11079;DHT22;5592;49.234;7.268;2023-05-07T12:21:10;26.00;99.90
11079;DHT22;5592;49.234;7.268;2023-05-07T12:23:37;25.90;99.90
11079;DHT22;5592;49.234;7.268;2023-05-07T12:26:03;25.80;99.90
11079;DHT22;5592;49.234;7.268;2023-05-07T12:28:35;25.30;99.90
11079;DHT22;5592;49.234;7.268;2023-05-07T12:31:02;25.20;99.90
11079;DHT22;5592;49.234;7.268;2023-05-07T12:33:27;24.90;99.90
11079;DHT22;5592;49.234;7.268;2023-05-07T12:35:54;24.20;99.90
11079;DHT22;5592;49.234;7.268;2023-05-07T12:38:20;24.00;99.90
11079;DHT22;5592;49.234;7.268;2023-05-07T12:40:48;24.10;99.90
11079;DHT22;5592;49.234;7.268;2023-05-07T12:45:49;24.00;99.90
11079;DHT22;5592;49.234;7.268;2023-05-07T12:48:15;24.10;99.90
11079;DHT22;5592;49.234;7.268;2023-05-07T12:50:41;24.40;99.90
11079;DHT22;5592;49.234;7.268;2023-05-07T12:53:08;23.80;99.90
11079;DHT22;5592;49.234;7.268;2023-05-07T12:55:44;23.00;99.90
11079;DHT22;5592;49.234;7.268;2023-05-07T12:58:23;22.60;99.90
11079;DHT22;5592;49.234;7.268;2023-05-07T13:00:50;22.40;99.90
11079;DHT22;5592;49.234;7.268;2023-05-07T13:03:30;22.50;99.90
11079;DHT22;5592;49.234;7.268;2023-05-07T13:05:58;22.60;99.90
11079;DHT22;5592;49.234;7.268;2023-05-07T13:10:51;22.60;99.90
11079;DHT22;5592;49.234;7.268;2023-05-07T13:13:16;22.80;99.90
11079;DHT22;5592;49.234;7.268;2023-05-07T13:15:42;22.90;99.90
11079;DHT22;5592;49.234;7.268;2023-05-07T13:18:08;22.90;99.90
11079;DHT22;5592;49.234;7.268;2023-05-07T13:20:35;22.60;99.90
11079;DHT22;5592;49.234;7.268;2023-05-07T13:23:01;22.50;99.90
11079;DHT22;5592;49.234;7.268;2023-05-07T13:25:27;22.60;99.90
11079;DHT22;5592;49.234;7.268;2023-05-07T13:27:53;22.30;99.90
11079;DHT22;5592;49.234;7.268;2023-05-07T13:30:18;22.60;99.90
11079;DHT22;5592;49.234;7.268;2023-05-07T13:32:44;22.30;99.90
11079;DHT22;5592;49.234;7.268;2023-05-07T13:35:11;21.80;99.90
11079;DHT22;5592;49.234;7.268;2023-05-07T13:37:36;21.50;99.90
11079;DHT22;5592;49.234;7.268;2023-05-07T13:40:02;21.30;99.90
11079;DHT22;5592;49.234;7.268;2023-05-07T13:42:27;21.10;99.90
11079;DHT22;5592;49.234;7.268;2023-05-07T13:44:53;21.00;99.90
11079;DHT22;5592;49.234;7.268;2023-05-07T13:47:19;20.70;99.90
11079;DHT22;5592;49.234;7.268;2023-05-07T13:49:45;20.50;99.90
11079;DHT22;5592;49.234;7.268;2023-05-07T13:52:10;20.50;99.90
11079;DHT22;5592;49.234;7.268;2023-05-07T13:54:36;20.60;99.90
11079;DHT22;5592;49.234;7.268;2023-05-07T13:57:02;20.60;99.90
11079;DHT22;5592;49.234;7.268;2023-05-07T13:59:27;20.60;99.90
11079;DHT22;5592;49.234;7.268;2023-05-07T14:01:55;20.60;99.90
11079;DHT22;5592;49.234;7.268;2023-05-07T14:04:21;20.50;99.90
11079;DHT22;5592;49.234;7.268;2023-05-07T14:06:47;20.40;99.90
11079;DHT22;5592;49.234;7.268;2023-05-07T14:09:12;20.40;99.90
11079;DHT22;5592;49.234;7.268;2023-05-07T14:11:39;20.70;99.90
11079;DHT22;5592;49.234;7.268;2023-05-07T14:14:05;21.10;99.90
11079;DHT22;5592;49.234;7.268;2023-05-07T14:16:31;21.30;99.90
11079;DHT22;5592;49.234;7.268;2023-05-07T14:18:56;21.20;99.90
11079;DHT22;5592;49.234;7.268;2023-05-07T14:21:22;21.30;99.90
11079;DHT22;5592;49.234;7.268;2023-05-07T14:23:47;21.50;99.90
11079;DHT22;5592;49.234;7.268;2023-05-07T14:26:13;21.70;99.90
11079;DHT22;5592;49.234;7.268;2023-05-07T14:28:39;21.90;99.90
11079;DHT22;5592;49.234;7.268;2023-05-07T14:31:05;22.00;99.90
11079;DHT22;5592;49.234;7.268;2023-05-07T14:33:31;22.00;99.90
11079;DHT22;5592;49.234;7.268;2023-05-07T14:36:27;22.10;99.90
11079;DHT22;5592;49.234;7.268;2023-05-07T14:38:55;22.20;99.90
11079;DHT22;5592;49.234;7.268;2023-05-07T14:41:22;22.40;99.90
11079;DHT22;5592;49.234;7.268;2023-05-07T14:43:48;22.30;99.90
11079;DHT22;5592;49.234;7.268;2023-05-07T14:46:18;22.40;99.90
11079;DHT22;5592;49.234;7.268;2023-05-07T14:48:45;22.60;99.90
11079;DHT22;5592;49.234;7.268;2023-05-07T14:51:13;22.80;99.90
11079;DHT22;5592;49.234;7.268;2023-05-07T14:53:41;22.90;99.90
11079;DHT22;5592;49.234;7.268;2023-05-07T14:56:06;22.80;99.90
11079;DHT22;5592;49.234;7.268;2023-05-07T14:58:32;22.70;99.90
11079;DHT22;5592;49.234;7.268;2023-05-07T15:00:58;22.60;99.90
11079;DHT22;5592;49.234;7.268;2023-05-07T15:03:24;22.40;99.90
11079;DHT22;5592;49.234;7.268;2023-05-07T15:05:50;22.40;99.90
11079;DHT22;5592;49.234;7.268;2023-05-07T15:08:17;22.20;99.90
11079;DHT22;5592;49.234;7.268;2023-05-07T15:10:42;22.20;99.90
11079;DHT22;5592;49.234;7.268;2023-05-07T15:13:09;22.10;99.90
11079;DHT22;5592;49.234;7.268;2023-05-07T15:15:35;21.80;99.90
11079;DHT22;5592;49.234;7.268;2023-05-07T15:18:02;21.70;99.90
11079;DHT22;5592;49.234;7.268;2023-05-07T15:20:27;21.50;99.90
11079;DHT22;5592;49.234;7.268;2023-05-07T15:22:53;21.30;99.90
11079;DHT22;5592;49.234;7.268;2023-05-07T15:25:19;21.20;99.90
11079;DHT22;5592;49.234;7.268;2023-05-07T15:27:45;21.10;99.90
11079;DHT22;5592;49.234;7.268;2023-05-07T15:30:12;21.10;99.90
11079;DHT22;5592;49.234;7.268;2023-05-07T15:32:37;21.20;99.90
11079;DHT22;5592;49.234;7.268;2023-05-07T15:35:04;21.30;99.90
11079;DHT22;5592;49.234;7.268;2023-05-07T15:37:33;21.40;99.90
11079;DHT22;5592;49.234;7.268;2023-05-07T15:39:59;21.50;99.90
11079;DHT22;5592;49.234;7.268;2023-05-07T15:42:27;21.60;99.90
11079;DHT22;5592;49.234;7.268;2023-05-07T15:44:53;21.60;99.90
11079;DHT22;5592;49.234;7.268;2023-05-07T15:47:19;21.60;99.90
11079;DHT22;5592;49.234;7.268;2023-05-07T15:49:44;21.80;99.90
11079;DHT22;5592;49.234;7.268;2023-05-07T15:52:10;21.80;99.90
11079;DHT22;5592;49.234;7.268;2023-05-07T15:54:36;21.70;99.90
11079;DHT22;5592;49.234;7.268;2023-05-07T15:57:03;21.80;99.90
11079;DHT22;5592;49.234;7.268;2023-05-07T15:59:29;21.60;99.90
11079;DHT22;5592;49.234;7.268;2023-05-07T16:01:55;21.60;99.90
11079;DHT22;5592;49.234;7.268;2023-05-07T16:04:20;21.50;99.90